createdAt,value
2017-01-05T00:00:05.095Z,96.07
2017-01-05T00:01:05.051Z,95.97
2017-01-05T00:02:05.394Z,96.35
2017-01-05T00:03:05.351Z,96.35
2017-01-05T00:04:05.337Z,96.87
2017-01-05T00:05:04.880Z,96.35
2017-01-05T00:06:05.226Z,96.54
2017-01-05T00:07:04.796Z,96.83
2017-01-05T00:08:05.139Z,96.83
2017-01-05T00:09:05.095Z,96.4
2017-01-05T00:10:05.053Z,96.59
2017-01-05T00:11:05.009Z,97.11
2017-01-05T00:12:04.969Z,96.59
2017-01-05T00:13:04.541Z,97.2
2017-01-05T00:14:04.882Z,96.73
2017-01-05T00:15:04.839Z,96.83
2017-01-05T00:16:04.797Z,96.73
2017-01-05T00:17:04.754Z,97.01
2017-01-05T00:18:04.327Z,96.83
2017-01-05T00:19:04.285Z,97.01
2017-01-05T00:20:04.627Z,97.01
2017-01-05T00:21:04.584Z,97.01
2017-01-05T00:22:04.543Z,97.3
2017-01-05T00:23:04.496Z,97.2
2017-01-05T00:24:04.453Z,97.39
2017-01-05T00:25:04.029Z,97.25
2017-01-05T00:26:04.368Z,97.3
2017-01-05T00:27:04.327Z,97.3
2017-01-05T00:28:04.284Z,96.96
2017-01-05T00:29:04.250Z,97.11
2017-01-05T00:30:03.815Z,97.2
2017-01-05T00:31:03.771Z,96.92
2017-01-05T00:32:04.114Z,96.96
2017-01-05T00:33:03.688Z,97.06
2017-01-05T00:34:03.643Z,97.01
2017-01-05T00:35:03.600Z,97.06
2017-01-05T00:36:03.556Z,97.06
2017-01-05T00:37:03.517Z,96.96
2017-01-05T00:38:03.859Z,97.06
2017-01-05T00:39:03.460Z,97.06
2017-01-05T00:40:03.770Z,97.06
2017-01-05T00:41:03.728Z,97.06
2017-01-05T00:42:03.686Z,96.96
2017-01-05T00:43:03.640Z,96.87
2017-01-05T00:44:03.599Z,96.96
2017-01-05T00:45:03.558Z,97.34
2017-01-05T00:46:03.513Z,97.34
2017-01-05T00:47:03.467Z,97.06
2017-01-05T00:48:03.424Z,97.06
2017-01-05T00:49:03.386Z,97.25
2017-01-05T00:50:03.342Z,97.06
2017-01-05T00:51:03.299Z,97.15
2017-01-05T00:52:03.258Z,97.15
2017-01-05T00:53:03.213Z,97.15
2017-01-05T00:54:03.176Z,97.34
2017-01-05T00:55:03.129Z,96.96
2017-01-05T00:56:03.092Z,96.78
2017-01-05T00:57:03.044Z,96.49
2017-01-05T00:58:03.006Z,96.87
2017-01-05T00:59:02.962Z,96.68
2017-01-05T01:00:02.532Z,96.78
2017-01-05T01:01:02.870Z,96.59
2017-01-05T01:02:02.480Z,96.4
2017-01-05T01:03:02.402Z,96.59
2017-01-05T01:04:02.747Z,96.68
2017-01-05T01:05:02.314Z,97.06
2017-01-05T01:06:02.656Z,96.68
2017-01-05T01:07:02.614Z,97.15
2017-01-05T01:08:02.573Z,96.78
2017-01-05T01:09:02.528Z,96.78
2017-01-05T01:10:02.100Z,96.87
2017-01-05T01:11:02.442Z,97.06
2017-01-05T01:12:02.397Z,97.39
2017-01-05T01:13:02.359Z,97.53
2017-01-05T01:14:02.315Z,97.63
2017-01-05T01:15:02.273Z,97.91
2017-01-05T01:16:02.227Z,98.33
2017-01-05T01:17:01.801Z,97.96
2017-01-05T01:18:02.146Z,98.38
2017-01-05T01:19:02.102Z,98
2017-01-05T01:20:02.057Z,98
2017-01-05T01:21:02.017Z,98.38
2017-01-05T01:22:01.971Z,99.19
2017-01-05T01:23:01.928Z,98.85
2017-01-05T01:24:01.891Z,98.76
2017-01-05T01:25:01.847Z,98.95
2017-01-05T01:26:01.801Z,99.23
2017-01-05T01:27:01.759Z,99.14
2017-01-05T01:28:01.716Z,99.71
2017-01-05T01:29:01.287Z,99.8
2017-01-05T01:30:01.628Z,99.99
2017-01-05T01:31:01.202Z,99.89
2017-01-05T01:32:01.542Z,99.52
2017-01-05T01:33:01.498Z,99.99
2017-01-05T01:34:01.460Z,99.61
2017-01-05T01:35:01.418Z,99.99
2017-01-05T01:36:01.370Z,99.99
2017-01-05T01:37:01.330Z,99.99
2017-01-05T01:38:01.288Z,99.99
2017-01-05T01:39:01.242Z,99.99
2017-01-05T01:40:01.201Z,99.99
2017-01-05T01:41:01.157Z,99.99
2017-01-05T01:42:01.113Z,99.99
2017-01-05T01:43:00.685Z,99.99
2017-01-05T01:44:01.037Z,99.99
2017-01-05T01:45:00.989Z,99.99
2017-01-05T01:46:00.940Z,99.99
2017-01-05T01:47:00.900Z,99.99
2017-01-05T01:48:00.856Z,99.99
2017-01-05T01:49:00.812Z,99.99
2017-01-05T01:50:00.772Z,99.71
2017-01-05T01:51:00.730Z,99.89
2017-01-05T01:52:00.685Z,99.99
2017-01-05T01:53:00.642Z,99.99
2017-01-05T01:54:00.599Z,99.99
2017-01-05T01:55:00.557Z,99.94
2017-01-05T01:56:00.515Z,99.99
2017-01-05T01:57:00.469Z,99.84
2017-01-05T01:58:00.431Z,99.84
2017-01-05T01:59:00.385Z,99.99
2017-01-05T02:00:00.340Z,99.65
2017-01-05T02:00:59.911Z,99.99
2017-01-05T02:01:59.869Z,99.84
2017-01-05T02:03:00.210Z,99.99
2017-01-05T02:04:00.173Z,99.99
2017-01-05T02:05:00.123Z,99.99
2017-01-05T02:06:00.084Z,99.99
2017-01-05T02:07:00.036Z,99.99
2017-01-05T02:07:59.999Z,99.99
2017-01-05T02:08:59.568Z,99.99
2017-01-05T02:09:59.911Z,99.99
2017-01-05T02:10:59.865Z,99.99
2017-01-05T02:11:59.823Z,99.99
2017-01-05T02:12:59.395Z,99.99
2017-01-05T02:13:59.733Z,99.99
2017-01-05T02:14:59.695Z,99.99
2017-01-05T02:15:59.265Z,99.99
2017-01-05T02:16:59.222Z,99.99
2017-01-05T02:17:59.562Z,99.99
2017-01-05T02:18:59.522Z,99.99
2017-01-05T02:19:59.099Z,99.99
2017-01-05T02:20:59.433Z,99.99
2017-01-05T02:21:59.391Z,99.99
2017-01-05T02:22:58.972Z,99.99
2017-01-05T02:23:59.314Z,99.99
2017-01-05T02:24:59.265Z,99.99
2017-01-05T02:25:59.216Z,99.99
2017-01-05T02:26:59.176Z,99.99
2017-01-05T02:27:59.134Z,99.99
2017-01-05T02:28:59.089Z,99.99
2017-01-05T02:29:59.044Z,99.99
2017-01-05T02:30:59.006Z,99.99
2017-01-05T02:31:58.960Z,99.99
2017-01-05T02:32:58.528Z,99.99
2017-01-05T02:33:58.871Z,99.99
2017-01-05T02:34:58.828Z,99.99
2017-01-05T02:35:58.786Z,99.99
2017-01-05T02:36:58.741Z,99.99
2017-01-05T02:37:58.705Z,99.99
2017-01-05T02:38:58.655Z,99.99
2017-01-05T02:39:58.611Z,99.99
2017-01-05T02:40:58.568Z,99.99
2017-01-05T02:41:58.142Z,99.99
2017-01-05T02:42:58.483Z,99.99
2017-01-05T02:43:58.054Z,99.99
2017-01-05T02:44:58.012Z,99.99
2017-01-05T02:45:58.353Z,99.99
2017-01-05T02:46:58.310Z,99.99
2017-01-05T02:47:58.267Z,99.99
2017-01-05T02:48:58.226Z,99.99
2017-01-05T02:49:57.795Z,99.99
2017-01-05T02:50:58.136Z,99.99
2017-01-05T02:51:58.094Z,99.99
2017-01-05T02:52:58.048Z,99.99
2017-01-05T02:53:57.622Z,99.99
2017-01-05T02:54:57.963Z,99.99
2017-01-05T02:55:57.922Z,99.99
2017-01-05T02:56:57.880Z,99.99
2017-01-05T02:57:57.834Z,99.99
2017-01-05T02:58:57.792Z,99.99
2017-01-05T02:59:57.750Z,99.99
2017-01-05T03:00:57.706Z,99.99
2017-01-05T03:01:57.664Z,99.99
2017-01-05T03:02:57.614Z,99.99
2017-01-05T03:03:57.574Z,99.99
2017-01-05T03:04:57.148Z,99.99
2017-01-05T03:05:57.109Z,99.99
2017-01-05T03:06:57.059Z,99.99
2017-01-05T03:07:57.408Z,99.99
2017-01-05T03:08:57.565Z,99.99
2017-01-05T03:09:58.027Z,99.99
2017-01-05T03:10:56.890Z,99.99
2017-01-05T03:11:57.236Z,99.99
2017-01-05T03:12:57.182Z,99.99
2017-01-05T03:13:57.143Z,99.99
2017-01-05T03:14:56.713Z,99.99
2017-01-05T03:15:57.058Z,99.99
2017-01-05T03:16:57.009Z,99.99
2017-01-05T03:17:56.967Z,99.99
2017-01-05T03:18:56.541Z,99.99
2017-01-05T03:19:56.881Z,99.99
2017-01-05T03:20:56.454Z,99.99
2017-01-05T03:21:56.409Z,99.99
2017-01-05T03:22:56.366Z,99.99
2017-01-05T03:23:56.709Z,99.99
2017-01-05T03:24:56.662Z,99.99
2017-01-05T03:25:56.235Z,99.99
2017-01-05T03:26:56.576Z,99.99
2017-01-05T03:27:56.533Z,99.99
2017-01-05T03:28:56.488Z,99.99
2017-01-05T03:29:56.446Z,99.99
2017-01-05T03:30:56.401Z,99.99
2017-01-05T03:31:56.362Z,99.99
2017-01-05T03:32:55.930Z,99.99
2017-01-05T03:33:56.276Z,99.99
2017-01-05T03:34:56.230Z,99.99
2017-01-05T03:35:55.801Z,99.99
2017-01-05T03:36:55.760Z,99.99
2017-01-05T03:37:55.711Z,99.99
2017-01-05T03:38:56.053Z,99.99
2017-01-05T03:39:56.011Z,99.99
2017-01-05T03:40:55.966Z,99.99
2017-01-05T03:41:55.540Z,99.99
2017-01-05T03:42:55.500Z,99.99
2017-01-05T03:43:55.456Z,99.99
2017-01-05T03:44:55.795Z,99.99
2017-01-05T03:45:55.746Z,99.99
2017-01-05T03:46:55.707Z,99.99
2017-01-05T03:47:55.275Z,99.99
2017-01-05T03:48:55.237Z,99.99
2017-01-05T03:49:55.573Z,99.99
2017-01-05T03:50:55.528Z,99.99
2017-01-05T03:51:55.485Z,99.99
2017-01-05T03:52:55.467Z,99.99
2017-01-05T03:53:55.396Z,99.99
2017-01-05T03:54:54.968Z,99.99
2017-01-05T03:55:55.317Z,99.99
2017-01-05T03:56:55.266Z,99.99
2017-01-05T03:57:55.222Z,99.99
2017-01-05T03:58:55.177Z,99.99
2017-01-05T03:59:55.137Z,99.99
2017-01-05T04:00:55.089Z,99.99
2017-01-05T04:01:55.045Z,99.99
2017-01-05T04:02:55.003Z,99.99
2017-01-05T04:03:54.956Z,99.99
2017-01-05T04:04:54.913Z,99.99
2017-01-05T04:05:54.872Z,99.99
2017-01-05T04:06:54.828Z,99.99
2017-01-05T04:07:54.784Z,99.99
2017-01-05T04:08:54.741Z,99.99
2017-01-05T04:09:54.696Z,99.99
2017-01-05T04:10:54.649Z,99.99
2017-01-05T04:11:54.607Z,99.99
2017-01-05T04:12:54.563Z,99.99
2017-01-05T04:13:54.517Z,99.99
2017-01-05T04:14:54.471Z,99.99
2017-01-05T04:15:54.432Z,99.99
2017-01-05T04:16:54.004Z,99.99
2017-01-05T04:17:54.347Z,99.99
2017-01-05T04:18:54.296Z,99.99
2017-01-05T04:19:54.255Z,99.99
2017-01-05T04:20:54.215Z,99.99
2017-01-05T04:21:54.168Z,99.99
2017-01-05T04:22:54.122Z,99.99
2017-01-05T04:23:54.079Z,99.99
2017-01-05T04:24:54.034Z,99.99
2017-01-05T04:25:53.990Z,99.99
2017-01-05T04:26:53.945Z,99.99
2017-01-05T04:27:53.905Z,99.99
2017-01-05T04:28:53.474Z,99.99
2017-01-05T04:29:53.428Z,99.99
2017-01-05T04:30:53.771Z,99.99
2017-01-05T04:31:53.727Z,99.99
2017-01-05T04:32:53.681Z,99.99
2017-01-05T04:33:53.637Z,99.99
2017-01-05T04:34:53.592Z,99.99
2017-01-05T04:35:53.171Z,99.99
2017-01-05T04:36:53.503Z,99.99
2017-01-05T04:37:53.076Z,99.99
2017-01-05T04:38:53.039Z,99.99
2017-01-05T04:39:53.375Z,99.99
2017-01-05T04:40:53.329Z,99.99
2017-01-05T04:41:52.903Z,99.99
2017-01-05T04:42:53.241Z,99.99
2017-01-05T04:43:52.818Z,99.99
2017-01-05T04:44:52.768Z,99.99
2017-01-05T04:45:53.113Z,99.99
2017-01-05T04:46:52.682Z,99.99
2017-01-05T04:47:52.635Z,99.99
2017-01-05T04:48:52.591Z,99.99
2017-01-05T04:49:52.935Z,99.99
2017-01-05T04:50:52.889Z,99.99
2017-01-05T04:51:52.457Z,99.99
2017-01-05T04:52:52.798Z,99.99
2017-01-05T04:53:52.219Z,99.99
2017-01-05T04:54:52.173Z,99.99
2017-01-05T04:55:52.128Z,99.99
2017-01-05T04:56:52.085Z,99.99
2017-01-05T04:57:52.041Z,99.99
2017-01-05T04:58:51.996Z,99.99
2017-01-05T04:59:51.953Z,99.99
2017-01-05T05:00:51.908Z,99.99
2017-01-05T05:01:51.864Z,99.99
2017-01-05T05:02:51.818Z,99.99
2017-01-05T05:03:51.774Z,99.99
2017-01-05T05:04:51.731Z,99.99
2017-01-05T05:05:51.686Z,99.99
2017-01-05T05:06:51.643Z,99.99
2017-01-05T05:07:51.598Z,99.99
2017-01-05T05:08:51.553Z,99.99
2017-01-05T05:09:51.510Z,99.99
2017-01-05T05:10:51.465Z,99.99
2017-01-05T05:11:51.420Z,99.99
2017-01-05T05:12:51.377Z,99.99
2017-01-05T05:13:51.331Z,99.99
2017-01-05T05:14:51.289Z,99.99
2017-01-05T05:15:51.245Z,99.99
2017-01-05T05:16:51.198Z,99.99
2017-01-05T05:17:51.155Z,99.99
2017-01-05T05:18:51.110Z,99.99
2017-01-05T05:19:51.067Z,99.99
2017-01-05T05:20:51.021Z,99.99
2017-01-05T05:21:50.977Z,99.99
2017-01-05T05:22:50.936Z,99.99
2017-01-05T05:23:50.887Z,99.99
2017-01-05T05:24:50.844Z,99.99
2017-01-05T05:25:50.799Z,99.99
2017-01-05T05:26:50.755Z,99.99
2017-01-05T05:27:50.710Z,99.99
2017-01-05T05:28:50.665Z,99.99
2017-01-05T05:29:50.621Z,99.99
2017-01-05T05:30:50.577Z,99.99
2017-01-05T05:31:50.534Z,99.99
2017-01-05T05:32:50.488Z,99.99
2017-01-05T05:33:50.444Z,99.99
2017-01-05T05:34:50.399Z,99.99
2017-01-05T05:35:50.355Z,99.99
2017-01-05T05:36:50.311Z,99.99
2017-01-05T05:37:50.267Z,99.99
2017-01-05T05:38:50.221Z,99.99
2017-01-05T05:39:50.178Z,99.99
2017-01-05T05:40:50.133Z,99.99
2017-01-05T05:41:50.089Z,99.99
2017-01-05T05:42:50.045Z,99.99
2017-01-05T05:43:50.003Z,99.99
2017-01-05T05:44:49.955Z,99.99
2017-01-05T05:45:49.910Z,99.99
2017-01-05T05:46:49.866Z,99.99
2017-01-05T05:47:49.822Z,99.99
2017-01-05T05:48:49.776Z,99.99
2017-01-05T05:49:49.731Z,99.99
2017-01-05T05:50:49.687Z,99.99
2017-01-05T05:51:49.644Z,99.99
2017-01-05T05:52:49.597Z,99.99
2017-01-05T05:53:49.553Z,99.99
2017-01-05T05:54:49.509Z,99.99
2017-01-05T05:55:49.465Z,99.99
2017-01-05T05:56:49.420Z,99.99
2017-01-05T05:57:49.382Z,99.99
2017-01-05T05:58:49.333Z,99.99
2017-01-05T05:59:49.288Z,99.99
2017-01-05T06:00:49.243Z,99.99
2017-01-05T06:01:49.199Z,99.99
2017-01-05T06:02:49.153Z,99.99
2017-01-05T06:03:49.110Z,99.99
2017-01-05T06:04:49.072Z,99.99
2017-01-05T06:05:49.022Z,99.99
2017-01-05T06:06:48.980Z,99.99
2017-01-05T06:07:48.932Z,99.99
2017-01-05T06:08:48.890Z,99.99
2017-01-05T06:09:48.847Z,99.99
2017-01-05T06:10:48.801Z,99.99
2017-01-05T06:11:48.763Z,99.99
2017-01-05T06:12:48.713Z,99.99
2017-01-05T06:13:48.668Z,99.99
2017-01-05T06:14:48.624Z,99.99
2017-01-05T06:15:48.580Z,99.99
2017-01-05T06:16:48.535Z,99.99
2017-01-05T06:17:48.492Z,99.99
2017-01-05T06:18:48.446Z,99.99
2017-01-05T06:19:48.402Z,99.99
2017-01-05T06:20:48.358Z,99.99
2017-01-05T06:21:48.315Z,99.99
2017-01-05T06:22:48.269Z,99.99
2017-01-05T06:23:48.225Z,99.99
2017-01-05T06:24:48.180Z,99.99
2017-01-05T06:25:48.137Z,99.99
2017-01-05T06:26:48.090Z,99.99
2017-01-05T06:27:48.049Z,99.99
2017-01-05T06:28:48.005Z,99.99
2017-01-05T06:29:47.959Z,99.99
2017-01-05T06:30:47.915Z,99.99
2017-01-05T06:31:47.872Z,99.99
2017-01-05T06:32:47.827Z,99.99
2017-01-05T06:33:47.783Z,99.99
2017-01-05T06:34:47.740Z,99.99
2017-01-05T06:35:47.696Z,99.99
2017-01-05T06:36:47.651Z,99.99
2017-01-05T06:37:47.608Z,99.99
2017-01-05T06:38:47.563Z,99.99
2017-01-05T06:39:47.518Z,99.99
2017-01-05T06:40:47.474Z,99.99
2017-01-05T06:41:47.430Z,99.99
2017-01-05T06:42:47.404Z,99.99
2017-01-05T06:43:47.342Z,99.99
2017-01-05T06:44:47.297Z,99.99
2017-01-05T06:45:47.254Z,99.99
2017-01-05T06:46:47.209Z,99.99
2017-01-05T06:47:47.166Z,99.99
2017-01-05T06:48:47.126Z,99.99
2017-01-05T06:49:47.076Z,99.99
2017-01-05T06:50:47.035Z,99.99
2017-01-05T06:51:46.988Z,99.99
2017-01-05T06:52:46.946Z,99.99
2017-01-05T06:53:46.899Z,99.99
2017-01-05T06:54:46.858Z,99.99
2017-01-05T06:55:46.813Z,99.99
2017-01-05T06:56:46.770Z,99.99
2017-01-05T06:57:46.725Z,99.99
2017-01-05T06:58:46.680Z,99.99
2017-01-05T06:59:46.637Z,99.99
2017-01-05T07:00:46.592Z,99.99
2017-01-05T07:01:46.549Z,99.99
2017-01-05T07:02:46.506Z,99.99
2017-01-05T07:03:46.461Z,99.99
2017-01-05T07:04:46.417Z,99.99
2017-01-05T07:05:46.374Z,99.99
2017-01-05T07:06:46.329Z,99.99
2017-01-05T07:07:46.284Z,99.99
2017-01-05T07:08:46.241Z,99.99
2017-01-05T07:09:46.195Z,99.99
2017-01-05T07:10:46.152Z,99.99
2017-01-05T07:11:46.108Z,99.99
2017-01-05T07:12:46.065Z,99.99
2017-01-05T07:13:46.020Z,99.99
2017-01-05T07:14:45.977Z,99.99
2017-01-05T07:15:45.934Z,99.99
2017-01-05T07:16:45.889Z,99.99
2017-01-05T07:17:45.845Z,99.99
2017-01-05T07:18:45.801Z,99.99
2017-01-05T07:19:45.756Z,99.99
2017-01-05T07:20:45.713Z,99.99
2017-01-05T07:21:45.667Z,99.99
2017-01-05T07:22:45.623Z,99.99
2017-01-05T07:23:45.582Z,99.99
2017-01-05T07:24:45.534Z,99.99
2017-01-05T07:25:45.492Z,99.99
2017-01-05T07:26:45.451Z,99.99
2017-01-05T07:27:45.404Z,99.99
2017-01-05T07:28:45.360Z,99.99
2017-01-05T07:29:45.316Z,99.99
2017-01-05T07:30:45.813Z,99.99
2017-01-05T07:31:45.771Z,99.99
2017-01-05T07:32:45.721Z,99.99
2017-01-05T07:33:45.679Z,99.99
2017-01-05T07:34:45.638Z,99.99
2017-01-05T07:35:45.627Z,99.99
2017-01-05T07:36:45.545Z,99.99
2017-01-05T07:37:45.116Z,99.99
2017-01-05T07:38:45.459Z,99.99
2017-01-05T07:39:45.417Z,99.99
2017-01-05T07:40:45.374Z,99.99
2017-01-05T07:41:45.329Z,99.99
2017-01-05T07:42:45.283Z,99.99
2017-01-05T07:43:44.856Z,99.99
2017-01-05T07:44:44.810Z,99.99
2017-01-05T07:45:45.154Z,99.99
2017-01-05T07:46:45.110Z,99.99
2017-01-05T07:47:45.071Z,99.99
2017-01-05T07:48:45.025Z,99.99
2017-01-05T07:49:44.982Z,99.99
2017-01-05T07:50:44.936Z,99.99
2017-01-05T07:51:44.895Z,99.99
2017-01-05T07:52:44.852Z,99.99
2017-01-05T07:53:44.809Z,99.99
2017-01-05T07:54:44.764Z,99.99
2017-01-05T07:55:44.727Z,99.95
2017-01-05T07:56:44.683Z,99.05
2017-01-05T07:57:44.636Z,98.01
2017-01-05T07:58:44.595Z,96.78
2017-01-05T07:59:44.551Z,96.31
2017-01-05T08:00:44.508Z,96.31
2017-01-05T08:01:44.468Z,95.17
2017-01-05T08:02:44.422Z,94.23
2017-01-05T08:03:44.390Z,93.47
2017-01-05T08:04:44.339Z,92.8
2017-01-05T08:05:44.296Z,93.28
2017-01-05T08:06:43.871Z,93.28
2017-01-05T08:07:44.213Z,93.13
2017-01-05T08:08:44.171Z,93.13
2017-01-05T08:09:44.128Z,93.51
2017-01-05T08:10:44.088Z,93.8
2017-01-05T08:11:43.660Z,93.89
2017-01-05T08:12:44.003Z,94.13
2017-01-05T08:13:43.576Z,94.79
2017-01-05T08:14:43.915Z,94.79
2017-01-05T08:15:43.490Z,94.51
2017-01-05T08:16:43.832Z,95.26
2017-01-05T08:17:43.805Z,95.36
2017-01-05T08:18:43.748Z,95.45
2017-01-05T08:19:43.708Z,95.64
2017-01-05T08:20:43.666Z,95.54
2017-01-05T08:21:43.621Z,96.11
2017-01-05T08:22:43.576Z,95.54
2017-01-05T08:23:43.537Z,95.64
2017-01-05T08:24:43.493Z,95.07
2017-01-05T08:25:43.450Z,95.36
2017-01-05T08:26:43.409Z,95.36
2017-01-05T08:27:43.366Z,95.36
2017-01-05T08:28:43.324Z,95.36
2017-01-05T08:29:43.278Z,95.54
2017-01-05T08:30:43.238Z,95.07
2017-01-05T08:31:43.197Z,95.26
2017-01-05T08:32:43.154Z,94.98
2017-01-05T08:33:43.111Z,95.26
2017-01-05T08:34:42.680Z,95.26
2017-01-05T08:35:43.023Z,95.17
2017-01-05T08:36:42.982Z,95.17
2017-01-05T08:37:42.940Z,94.89
2017-01-05T08:38:42.897Z,94.79
2017-01-05T08:39:42.854Z,94.79
2017-01-05T08:40:42.813Z,94.79
2017-01-05T08:41:42.768Z,94.51
2017-01-05T08:42:42.729Z,94.51
2017-01-05T08:43:42.687Z,93.94
2017-01-05T08:44:42.643Z,93.94
2017-01-05T08:45:42.219Z,94.22
2017-01-05T08:46:42.556Z,94.32
2017-01-05T08:47:42.514Z,94.32
2017-01-05T08:48:42.476Z,94.41
2017-01-05T08:49:42.428Z,94.32
2017-01-05T08:50:42.386Z,94.22
2017-01-05T08:51:42.344Z,94.22
2017-01-05T08:52:41.918Z,94.13
2017-01-05T08:53:41.872Z,94.6
2017-01-05T08:54:41.831Z,94.51
2017-01-05T08:55:42.172Z,94.98
2017-01-05T08:56:41.746Z,94.79
2017-01-05T08:57:41.703Z,94.79
2017-01-05T08:58:42.046Z,94.89
2017-01-05T08:59:42.000Z,94.6
2017-01-05T09:00:41.962Z,95.07
2017-01-05T09:01:41.916Z,95.36
2017-01-05T09:02:41.905Z,95.07
2017-01-05T09:03:41.831Z,95.36
2017-01-05T09:04:41.792Z,95.17
2017-01-05T09:05:41.361Z,95.36
2017-01-05T09:06:41.703Z,95.26
2017-01-05T09:07:41.662Z,95.36
2017-01-05T09:08:41.617Z,95.36
2017-01-05T09:09:41.575Z,95.36
2017-01-05T09:10:41.535Z,95.26
2017-01-05T09:11:41.106Z,94.6
2017-01-05T09:12:41.448Z,94.6
2017-01-05T09:13:41.020Z,94.89
2017-01-05T09:14:41.361Z,94.6
2017-01-05T09:15:41.329Z,94.51
2017-01-05T09:16:41.281Z,94.41
2017-01-05T09:17:41.235Z,94.13
2017-01-05T09:18:41.193Z,94.22
2017-01-05T09:19:41.150Z,93.84
2017-01-05T09:20:41.109Z,93.84
2017-01-05T09:21:40.681Z,93.47
2017-01-05T09:22:41.023Z,93.28
2017-01-05T09:23:40.982Z,93.18
2017-01-05T09:24:40.939Z,92.8
2017-01-05T09:25:40.894Z,92.99
2017-01-05T09:26:40.850Z,93.04
2017-01-05T09:27:40.812Z,93.04
2017-01-05T09:28:40.771Z,93.32
2017-01-05T09:29:40.343Z,92.85
2017-01-05T09:30:40.683Z,92.57
2017-01-05T09:31:40.640Z,92.29
2017-01-05T09:32:40.597Z,92.29
2017-01-05T09:33:40.558Z,91.62
2017-01-05T09:34:40.520Z,91.34
2017-01-05T09:35:40.469Z,91.05
2017-01-05T09:36:40.428Z,90.39
2017-01-05T09:37:40.389Z,90.68
2017-01-05T09:38:40.347Z,90.58
2017-01-05T09:39:40.305Z,90.11
2017-01-05T09:40:40.260Z,90.39
2017-01-05T09:41:40.216Z,89.73
2017-01-05T09:42:40.177Z,89.73
2017-01-05T09:43:39.749Z,90.11
2017-01-05T09:44:40.091Z,90.11
2017-01-05T09:45:40.055Z,89.54
2017-01-05T09:46:40.005Z,90.01
2017-01-05T09:47:39.963Z,89.5
2017-01-05T09:48:39.536Z,88.93
2017-01-05T09:49:39.884Z,88.36
2017-01-05T09:50:39.839Z,87.98
2017-01-05T09:51:39.797Z,87.79
2017-01-05T09:52:39.759Z,87.32
2017-01-05T09:53:39.717Z,87.32
2017-01-05T09:54:39.674Z,87.7
2017-01-05T09:55:39.634Z,87.7
2017-01-05T09:56:39.590Z,87.7
2017-01-05T09:57:39.161Z,87.88
2017-01-05T09:58:39.119Z,87.98
2017-01-05T09:59:39.466Z,87.88
2017-01-05T10:00:39.037Z,87.6
2017-01-05T10:01:39.376Z,87.51
2017-01-05T10:02:39.338Z,87.98
2017-01-05T10:03:39.295Z,87.7
2017-01-05T10:04:39.256Z,83.62
2017-01-05T10:05:39.212Z,79.63
2017-01-05T10:06:39.171Z,73.72
2017-01-05T10:07:38.746Z,69.11
2017-01-05T10:08:39.089Z,66.3
2017-01-05T10:09:39.054Z,64.49
2017-01-05T10:10:38.627Z,64.02
2017-01-05T10:11:38.973Z,64.59
2017-01-05T10:12:38.547Z,64.21
2017-01-05T10:13:38.922Z,62.88
2017-01-05T10:14:38.856Z,61.87
2017-01-05T10:15:38.428Z,60.25
2017-01-05T10:16:38.775Z,59.52
2017-01-05T10:17:38.353Z,58
2017-01-05T10:18:38.312Z,57.81
2017-01-05T10:19:38.278Z,57.62
2017-01-05T10:20:38.624Z,57.78
2017-01-05T10:21:38.585Z,59.17
2017-01-05T10:22:38.551Z,60.22
2017-01-05T10:23:38.508Z,61.52
2017-01-05T10:24:38.501Z,62.85
2017-01-05T10:25:38.433Z,62.46
2017-01-05T10:26:38.398Z,61.23
2017-01-05T10:27:38.364Z,61.36
2017-01-05T10:28:37.937Z,60.22
2017-01-05T10:29:37.904Z,59.74
2017-01-05T10:30:38.246Z,60.13
2017-01-05T10:31:38.215Z,61.23
2017-01-05T10:32:38.175Z,62.82
2017-01-05T10:33:37.750Z,63.67
2017-01-05T10:34:38.099Z,63.86
2017-01-05T10:35:37.679Z,63.01
2017-01-05T10:36:38.025Z,62.15
2017-01-05T10:37:37.603Z,59.81
2017-01-05T10:38:37.950Z,58.54
2017-01-05T10:39:37.912Z,59.78
2017-01-05T10:40:37.875Z,59.88
2017-01-05T10:41:37.841Z,59.49
2017-01-05T10:42:37.413Z,59.94
2017-01-05T10:43:37.763Z,63.23
2017-01-05T10:44:37.339Z,64.84
2017-01-05T10:45:37.686Z,67.65
2017-01-05T10:46:37.264Z,68.75
2017-01-05T10:47:37.611Z,69.79
2017-01-05T10:48:37.573Z,70.26
2017-01-05T10:49:37.536Z,70.58
2017-01-05T10:50:37.500Z,68.63
2017-01-05T10:51:37.459Z,65.97
2017-01-05T10:52:37.037Z,64.97
2017-01-05T10:53:37.386Z,63.54
2017-01-05T10:54:36.958Z,61.11
2017-01-05T10:55:37.305Z,58.51
2017-01-05T10:56:37.265Z,55.15
2017-01-05T10:57:37.232Z,51.27
2017-01-05T10:58:37.194Z,49.13
2017-01-05T10:59:37.155Z,48.11
2017-01-05T11:00:37.120Z,46.04
2017-01-05T11:01:37.076Z,44.44
2017-01-05T11:02:37.044Z,42.53
2017-01-05T11:03:37.008Z,41.5
2017-01-05T11:04:36.979Z,41.12
2017-01-05T11:05:36.554Z,39.12
2017-01-05T11:06:36.518Z,39.23
2017-01-05T11:07:36.870Z,38.95
2017-01-05T11:08:36.832Z,37.99
2017-01-05T11:09:36.416Z,37.61
2017-01-05T11:10:36.382Z,36.56
2017-01-05T11:11:36.734Z,37.61
2017-01-05T11:12:36.700Z,38.37
2017-01-05T11:13:36.666Z,37.8
2017-01-05T11:14:36.637Z,36.94
2017-01-05T11:15:36.216Z,36.37
2017-01-05T11:16:36.564Z,35.89
2017-01-05T11:17:36.542Z,35.32
2017-01-05T11:18:36.501Z,35.6
2017-01-05T11:19:36.469Z,35.32
2017-01-05T11:20:36.436Z,35.51
2017-01-05T11:21:36.399Z,35.41
2017-01-05T11:22:36.376Z,35.03
2017-01-05T11:23:35.957Z,34.65
2017-01-05T11:24:36.305Z,34.17
2017-01-05T11:25:36.272Z,34.08
2017-01-05T11:26:36.240Z,33.41
2017-01-05T11:27:36.209Z,33.04
2017-01-05T11:28:36.181Z,31.51
2017-01-05T11:29:35.758Z,32.84
2017-01-05T11:30:36.109Z,34.71
2017-01-05T11:31:36.081Z,36.98
2017-01-05T11:32:36.041Z,38.2
2017-01-05T11:33:36.013Z,38.29
2017-01-05T11:34:35.591Z,38.68
2017-01-05T11:35:35.946Z,39.8
2017-01-05T11:36:35.912Z,40.18
2017-01-05T11:37:35.878Z,40.18
2017-01-05T11:38:35.846Z,38.78
2017-01-05T11:39:35.816Z,37.54
2017-01-05T11:40:35.776Z,36.51
2017-01-05T11:41:35.747Z,35.66
2017-01-05T11:42:35.328Z,34.14
2017-01-05T11:43:35.677Z,35.8
2017-01-05T11:44:35.259Z,39.97
2017-01-05T11:45:35.227Z,43.16
2017-01-05T11:46:35.580Z,44.09
2017-01-05T11:47:35.158Z,45.21
2017-01-05T11:48:35.513Z,48.41
2017-01-05T11:49:35.093Z,50.2
2017-01-05T11:50:35.442Z,50.93
2017-01-05T11:51:35.404Z,52.06
2017-01-05T11:52:35.000Z,53.2
2017-01-05T11:53:35.334Z,54.03
2017-01-05T11:54:35.294Z,54.88
2017-01-05T11:55:35.259Z,55.26
2017-01-05T11:56:35.225Z,56.18
2017-01-05T11:57:35.190Z,57.32
2017-01-05T11:58:34.767Z,58.26
2017-01-05T11:59:35.113Z,58.45
2017-01-05T12:00:35.080Z,57.57
2017-01-05T12:01:35.039Z,58.05
2017-01-05T12:02:35.001Z,59.81
2017-01-05T12:03:34.608Z,60.19
2017-01-05T12:04:34.540Z,61.05
2017-01-05T12:05:34.885Z,60.86
2017-01-05T12:06:34.848Z,61.99
2017-01-05T12:07:34.809Z,63.13
2017-01-05T12:08:34.772Z,63.6
2017-01-05T12:09:34.348Z,63.04
2017-01-05T12:10:34.696Z,63.13
2017-01-05T12:11:34.656Z,62.28
2017-01-05T12:12:34.229Z,62.94
2017-01-05T12:13:34.581Z,64.14
2017-01-05T12:14:34.537Z,64.71
2017-01-05T12:15:34.496Z,66.31
2017-01-05T12:16:34.074Z,68.12
2017-01-05T12:17:34.419Z,68.93
2017-01-05T12:18:33.992Z,70.06
2017-01-05T12:19:34.337Z,71.2
2017-01-05T12:20:34.293Z,71.67
2017-01-05T12:21:34.256Z,72.24
2017-01-05T12:22:34.214Z,72.9
2017-01-05T12:23:33.792Z,73.33
2017-01-05T12:24:33.753Z,73.43
2017-01-05T12:25:34.097Z,74.19
2017-01-05T12:26:34.057Z,74.76
2017-01-05T12:27:34.012Z,75.32
2017-01-05T12:28:33.970Z,75.13
2017-01-05T12:29:33.930Z,75.32
2017-01-05T12:30:33.888Z,74.76
2017-01-05T12:31:33.501Z,75.04
2017-01-05T12:32:33.419Z,75.04
2017-01-05T12:33:33.769Z,74.66
2017-01-05T12:34:33.339Z,74.47
2017-01-05T12:35:33.295Z,74.28
2017-01-05T12:36:33.638Z,74.57
2017-01-05T12:37:33.604Z,74.28
2017-01-05T12:38:33.584Z,74.38
2017-01-05T12:39:33.512Z,74.76
2017-01-05T12:40:33.472Z,75.04
2017-01-05T12:41:33.046Z,75.23
2017-01-05T12:42:33.003Z,75.42
2017-01-05T12:43:32.960Z,74.85
2017-01-05T12:44:33.302Z,74.85
2017-01-05T12:45:33.262Z,73.62
2017-01-05T12:46:33.219Z,72.02
2017-01-05T12:47:33.179Z,72.77
2017-01-05T12:48:33.134Z,73.05
2017-01-05T12:49:32.706Z,72.96
2017-01-05T12:50:33.049Z,73.05
2017-01-05T12:51:33.005Z,73.24
2017-01-05T12:52:33.000Z,73.81
2017-01-05T12:53:32.922Z,73.43